Time;durP1;ratioP1;P1;durP2;ratioP2;P2;SDS_P1;SDS_P2;PMS_P1;PMS_P2;Temp;Humidity;BMP_temperature;BMP_pressure;BME280_temperature;BME280_humidity;BME280_pressure;Samples;Min_cycle;Max_cycle;Signal;HPM_P1;HPM_P2
2023/11/30 00:01:47;;;;;;;4.90;3.20;;;;;;;;;;4979728;28;20871;-63
2023/11/30 00:04:15;;;;;;;3.20;2.90;;;;;;;;;;4982967;28;20455;-64
2023/11/30 00:06:43;;;;;;;5.73;3.13;;;;;;;;;;4982771;28;20455;-63
2023/11/30 00:09:11;;;;;;;4.20;3.00;;;;;;;;;;4982825;28;20457;-63
2023/11/30 00:11:39;;;;;;;3.83;3.43;;;;;;;;;;4982420;28;21001;-64
2023/11/30 00:14:07;;;;;;;3.90;2.90;;;;;;;;;;4982545;28;20519;-63
2023/11/30 00:16:36;;;;;;;5.20;3.40;;;;;;;;;;4982354;28;20457;-63
2023/11/30 00:19:05;;;;;;;4.93;3.13;;;;;;;;;;4982746;28;20483;-63
2023/11/30 00:21:33;;;;;;;5.23;2.80;;;;;;;;;;4982620;28;20497;-63
2023/11/30 00:24:01;;;;;;;3.97;2.70;;;;;;;;;;4982316;28;20941;-63
2023/11/30 00:26:29;;;;;;;5.03;3.17;;;;;;;;;;4982418;28;20525;-63
2023/11/30 00:28:57;;;;;;;5.57;3.33;;;;;;;;;;4982243;28;20502;-63
2023/11/30 00:31:26;;;;;;;4.87;2.20;;;;;;;;;;4982129;28;20469;-63
2023/11/30 00:33:57;;;;;;;3.97;2.30;;;;;;;;;;4982463;28;20445;-63
2023/11/30 00:36:25;;;;;;;5.37;2.60;;;;;;;;;;4981975;28;20472;-64
2023/11/30 00:38:54;;;;;;;2.93;2.73;;;;;;;;;;4982258;28;20539;-64
2023/11/30 00:41:22;;;;;;;3.27;2.83;;;;;;;;;;4994326;28;20832;-64
2023/11/30 00:43:50;;;;;;;3.27;2.57;;;;;;;;;;4982192;28;20512;-64
2023/11/30 00:46:18;;;;;;;2.60;2.20;;;;;;;;;;4981729;28;20445;-64
2023/11/30 00:48:46;;;;;;;2.70;2.23;;;;;;;;;;4982203;28;20452;-64
2023/11/30 00:51:16;;;;;;;3.83;2.47;;;;;;;;;;4981997;28;20464;-64
2023/11/30 00:53:44;;;;;;;2.63;2.13;;;;;;;;;;4982123;28;20495;-64
2023/11/30 00:56:12;;;;;;;2.27;2.03;;;;;;;;;;4981833;28;20499;-64
2023/11/30 00:58:40;;;;;;;3.77;2.67;;;;;;;;;;4984871;28;20457;-64
2023/11/30 01:01:08;;;;;;;2.50;2.00;;;;;;;;;;4981662;28;20469;-64
2023/11/30 01:03:36;;;;;;;2.13;1.97;;;;;;;;;;4981868;28;20503;-64
2023/11/30 01:06:05;;;;;;;2.70;2.20;;;;;;;;;;4981898;28;20444;-64
2023/11/30 01:08:35;;;;;;;2.20;1.80;;;;;;;;;;4981902;28;20492;-64
2023/11/30 01:11:03;;;;;;;1.70;1.60;;;;;;;;;;4981529;28;20524;-64
2023/11/30 01:13:31;;;;;;;1.90;1.77;;;;;;;;;;4980466;28;20449;-64
2023/11/30 01:15:59;;;;;;;1.97;1.77;;;;;;;;;;4981441;28;20449;-64
2023/11/30 01:18:27;;;;;;;3.30;2.03;;;;;;;;;;4981694;28;20544;-64
2023/11/30 01:20:55;;;;;;;1.50;1.40;;;;;;;;;;4981454;28;20527;-64
2023/11/30 01:23:23;;;;;;;1.50;1.40;;;;;;;;;;4981558;28;20488;-63
2023/11/30 01:25:53;;;;;;;2.20;1.50;;;;;;;;;;4981134;28;20816;-64
2023/11/30 01:28:21;;;;;;;2.30;1.67;;;;;;;;;;4981453;28;20476;-64
2023/11/30 01:30:49;;;;;;;1.20;1.20;;;;;;;;;;4981196;28;20523;-64
2023/11/30 01:33:17;;;;;;;1.77;1.40;;;;;;;;;;4981055;28;20540;-64
2023/11/30 01:35:45;;;;;;;2.13;1.27;;;;;;;;;;4981009;28;20473;-64
2023/11/30 01:38:13;;;;;;;3.40;1.23;;;;;;;;;;4980945;28;20453;-64
2023/11/30 01:40:41;;;;;;;2.10;1.20;;;;;;;;;;4981243;28;20503;-64
2023/11/30 01:43:10;;;;;;;1.20;1.20;;;;;;;;;;4980787;28;21011;-64
2023/11/30 01:45:38;;;;;;;1.17;1.13;;;;;;;;;;4980707;28;20453;-64
2023/11/30 01:48:06;;;;;;;1.93;1.60;;;;;;;;;;4980859;28;20460;-64
2023/11/30 01:50:35;;;;;;;1.53;1.10;;;;;;;;;;4980785;28;20500;-64
2023/11/30 01:53:03;;;;;;;1.40;1.30;;;;;;;;;;4980993;28;20453;-64
2023/11/30 01:55:31;;;;;;;1.03;0.90;;;;;;;;;;4980930;28;20441;-64
2023/11/30 01:57:59;;;;;;;0.93;0.93;;;;;;;;;;4983657;28;20865;-64
2023/11/30 02:00:29;;;;;;;0.97;0.97;;;;;;;;;;4980350;28;20519;-63
2023/11/30 02:02:58;;;;;;;0.80;0.80;;;;;;;;;;4980766;28;20484;-63
2023/11/30 02:05:26;;;;;;;0.80;0.80;;;;;;;;;;4980813;28;20449;-64
2023/11/30 02:07:54;;;;;;;1.60;1.50;;;;;;;;;;4980782;28;20449;-64
2023/11/30 02:10:24;;;;;;;1.30;1.20;;;;;;;;;;4980301;28;20234;-64
2023/11/30 02:12:52;;;;;;;3.20;1.40;;;;;;;;;;4980662;28;20210;-64
2023/11/30 02:15:20;;;;;;;1.50;1.30;;;;;;;;;;4980340;28;20202;-64
2023/11/30 02:17:49;;;;;;;1.30;1.20;;;;;;;;;;4980580;28;20214;-64
2023/11/30 02:20:19;;;;;;;1.30;0.80;;;;;;;;;;4980235;28;20213;-64
2023/11/30 02:22:48;;;;;;;0.80;0.80;;;;;;;;;;4980458;28;20460;-64
2023/11/30 02:25:16;;;;;;;1.60;1.07;;;;;;;;;;4979677;28;20233;-64
2023/11/30 02:27:45;;;;;;;1.23;1.13;;;;;;;;;;4980622;28;20217;-64
2023/11/30 02:30:13;;;;;;;0.73;0.73;;;;;;;;;;4979992;28;20298;-64
2023/11/30 02:32:41;;;;;;;1.10;1.00;;;;;;;;;;4979975;28;20484;-64
2023/11/30 02:35:10;;;;;;;0.93;0.93;;;;;;;;;;4979943;28;20241;-64
2023/11/30 02:37:38;;;;;;;1.03;1.03;;;;;;;;;;4979889;28;20456;-64
2023/11/30 02:40:08;;;;;;;1.00;1.00;;;;;;;;;;4979656;28;20830;-64
2023/11/30 02:42:37;;;;;;;1.33;1.17;;;;;;;;;;4980101;28;20665;-64
2023/11/30 02:45:05;;;;;;;1.30;1.20;;;;;;;;;;4979788;28;20524;-64
2023/11/30 02:47:33;;;;;;;1.40;0.97;;;;;;;;;;4979992;28;20214;-64
2023/11/30 02:50:01;;;;;;;2.30;1.03;;;;;;;;;;4979695;28;20576;-64
2023/11/30 02:52:29;;;;;;;0.80;0.80;;;;;;;;;;4979896;28;20210;-64
2023/11/30 02:54:57;;;;;;;1.13;1.00;;;;;;;;;;4979872;28;20226;-63
2023/11/30 02:57:27;;;;;;;1.60;1.03;;;;;;;;;;4982512;28;20617;-64
2023/11/30 02:59:55;;;;;;;1.00;0.90;;;;;;;;;;4966799;28;20914;-64
2023/11/30 03:02:23;;;;;;;1.00;1.00;;;;;;;;;;4979328;28;20867;-64
2023/11/30 03:04:54;;;;;;;0.90;0.90;;;;;;;;;;4979437;28;20492;-64
2023/11/30 03:07:22;;;;;;;0.70;0.70;;;;;;;;;;4979591;28;20453;-63
2023/11/30 03:09:50;;;;;;;0.77;0.77;;;;;;;;;;4979422;28;20445;-63
2023/11/30 03:12:18;;;;;;;0.80;0.80;;;;;;;;;;4979060;28;20504;-63
2023/11/30 03:14:47;;;;;;;1.00;1.00;;;;;;;;;;4979178;28;20445;-64
2023/11/30 03:17:16;;;;;;;1.33;1.23;;;;;;;;;;4979200;28;21011;-64
2023/11/30 03:19:44;;;;;;;1.17;1.07;;;;;;;;;;4979223;28;20482;-64
2023/11/30 03:22:12;;;;;;;1.03;1.00;;;;;;;;;;4979340;28;20493;-63
2023/11/30 03:24:40;;;;;;;1.57;1.43;;;;;;;;;;4979361;28;20525;-63
2023/11/30 03:27:11;;;;;;;1.00;1.00;;;;;;;;;;4978951;28;20448;-64
2023/11/30 03:29:40;;;;;;;1.60;1.03;;;;;;;;;;4979229;28;20528;-64
2023/11/30 03:32:10;;;;;;;1.10;0.87;;;;;;;;;;4978894;28;20476;-64
2023/11/30 03:34:38;;;;;;;0.80;0.80;;;;;;;;;;4979227;28;20500;-64
2023/11/30 03:37:06;;;;;;;1.17;1.17;;;;;;;;;;4978551;28;20449;-64
2023/11/30 03:39:34;;;;;;;1.00;0.90;;;;;;;;;;4979160;28;20449;-63
2023/11/30 03:42:02;;;;;;;1.17;1.07;;;;;;;;;;4966142;28;20473;-63
2023/11/30 03:44:30;;;;;;;1.30;1.20;;;;;;;;;;4978841;28;20493;-63
2023/11/30 03:46:59;;;;;;;1.27;1.17;;;;;;;;;;4979179;28;20487;-64
2023/11/30 03:49:28;;;;;;;1.73;1.40;;;;;;;;;;4979072;28;20453;-62
2023/11/30 03:51:56;;;;;;;2.30;1.47;;;;;;;;;;4979072;28;20524;-64
2023/11/30 03:54:24;;;;;;;1.60;1.50;;;;;;;;;;4978775;28;20928;-63
2023/11/30 03:56:53;;;;;;;1.87;1.63;;;;;;;;;;4978729;28;20477;-64
2023/11/30 03:59:21;;;;;;;1.93;1.83;;;;;;;;;;4981877;28;20461;-63
2023/11/30 04:01:49;;;;;;;2.13;2.03;;;;;;;;;;4978687;28;20995;-63
2023/11/30 04:04:17;;;;;;;2.00;1.90;;;;;;;;;;4978643;28;20536;-63
2023/11/30 04:06:47;;;;;;;1.97;1.87;;;;;;;;;;4978660;28;20456;-63
2023/11/30 04:09:15;;;;;;;1.90;1.80;;;;;;;;;;4978936;28;20461;-63
2023/11/30 04:11:46;;;;;;;1.90;1.80;;;;;;;;;;4978776;28;20472;-64
2023/11/30 04:14:14;;;;;;;1.97;1.87;;;;;;;;;;4978467;28;20866;-63
2023/11/30 04:16:42;;;;;;;2.37;2.17;;;;;;;;;;4978895;28;20490;-63
2023/11/30 04:19:10;;;;;;;2.27;2.07;;;;;;;;;;4978581;28;20548;-63
2023/11/30 04:21:39;;;;;;;2.13;1.80;;;;;;;;;;4978762;28;20495;-63
2023/11/30 04:24:08;;;;;;;2.13;2.03;;;;;;;;;;4978747;28;20453;-63
2023/11/30 04:26:36;;;;;;;2.33;2.10;;;;;;;;;;4978462;28;20817;-63
2023/11/30 04:29:05;;;;;;;7.50;2.70;;;;;;;;;;4978677;28;20445;-64
2023/11/30 04:31:33;;;;;;;2.20;2.10;;;;;;;;;;4978581;28;20496;-64
2023/11/30 04:34:01;;;;;;;2.30;2.10;;;;;;;;;;4978797;28;20507;-63
2023/11/30 04:36:29;;;;;;;3.20;2.10;;;;;;;;;;4978259;28;20481;-64
2023/11/30 04:38:57;;;;;;;2.70;2.33;;;;;;;;;;4978648;28;20452;-63
2023/11/30 04:41:26;;;;;;;2.10;2.00;;;;;;;;;;4978211;28;20481;-63
2023/11/30 04:43:54;;;;;;;3.67;2.63;;;;;;;;;;4978457;28;20445;-63
2023/11/30 04:46:23;;;;;;;5.23;3.10;;;;;;;;;;4978296;28;20554;-63
2023/11/30 04:48:51;;;;;;;4.07;2.93;;;;;;;;;;4980939;28;20537;-64
2023/11/30 04:51:19;;;;;;;2.83;2.50;;;;;;;;;;4981800;28;20543;-64
2023/11/30 04:53:47;;;;;;;2.97;2.50;;;;;;;;;;4982178;28;20456;-63
2023/11/30 04:56:15;;;;;;;3.00;2.40;;;;;;;;;;4982013;28;20499;-64
2023/11/30 04:58:45;;;;;;;6.93;3.43;;;;;;;;;;4985149;28;20504;-63
2023/11/30 05:01:13;;;;;;;4.47;3.73;;;;;;;;;;4981440;28;21055;-64
2023/11/30 05:03:41;;;;;;;3.50;2.77;;;;;;;;;;4981704;28;20863;-64
2023/11/30 05:06:09;;;;;;;3.43;2.93;;;;;;;;;;4981823;28;20484;-64
2023/11/30 05:08:37;;;;;;;3.20;2.90;;;;;;;;;;4981792;28;20461;-64
2023/11/30 05:11:06;;;;;;;3.30;2.50;;;;;;;;;;4981654;28;20468;-64
2023/11/30 05:13:33;;;;;;;3.10;2.40;;;;;;;;;;4981811;28;20297;-64
2023/11/30 05:16:03;;;;;;;2.13;1.93;;;;;;;;;;4981593;28;20341;-64
2023/11/30 05:18:31;;;;;;;2.60;2.40;;;;;;;;;;4981625;28;20499;-64
2023/11/30 05:20:59;;;;;;;2.43;2.23;;;;;;;;;;4981641;28;20237;-64
2023/11/30 05:23:27;;;;;;;2.70;2.50;;;;;;;;;;4981549;28;20449;-64
2023/11/30 05:25:57;;;;;;;3.03;2.70;;;;;;;;;;4981024;28;20662;-64
2023/11/30 05:28:25;;;;;;;4.63;2.90;;;;;;;;;;4981249;28;20685;-64
2023/11/30 05:34:22;;;;;;;3.33;2.87;;;;;;;;;;4980884;28;20220;-64
2023/11/30 05:36:53;;;;;;;3.07;2.77;;;;;;;;;;4981198;28;20206;-63
2023/11/30 05:39:21;;;;;;;3.00;2.50;;;;;;;;;;4981222;28;20217;-63
2023/11/30 05:41:49;;;;;;;2.80;2.23;;;;;;;;;;4981354;28;20713;-63
2023/11/30 05:44:18;;;;;;;2.80;2.50;;;;;;;;;;4981075;28;20213;-61
2023/11/30 05:46:57;;;;;;;2.50;2.30;;;;;;;;;;4981074;28;20284;-62
2023/11/30 05:49:26;;;;;;;2.33;2.13;;;;;;;;;;4981046;28;20220;-61
2023/11/30 05:51:55;;;;;;;3.30;2.40;;;;;;;;;;4980914;28;20230;-62
2023/11/30 05:54:26;;;;;;;3.87;2.63;;;;;;;;;;4981010;28;20205;-61
2023/11/30 05:56:54;;;;;;;6.00;3.47;;;;;;;;;;4980888;28;20294;-61
2023/11/30 06:02:54;;;;;;;2.63;2.43;;;;;;;;;;4979803;28;20559;-61
2023/11/30 06:08:52;;;;;;;4.67;3.50;;;;;;;;;;4980357;28;20254;-61
2023/11/30 06:11:20;;;;;;;4.23;3.37;;;;;;;;;;4980579;28;20476;-61
2023/11/30 06:13:48;;;;;;;3.10;2.37;;;;;;;;;;4980657;28;20237;-61
2023/11/30 06:16:16;;;;;;;3.23;2.50;;;;;;;;;;4980473;28;20237;-61
2023/11/30 06:18:44;;;;;;;4.03;3.20;;;;;;;;;;4980331;28;20213;-61
2023/11/30 06:21:12;;;;;;;3.47;2.70;;;;;;;;;;4980502;28;20233;-62
2023/11/30 06:23:40;;;;;;;3.53;2.73;;;;;;;;;;4980184;28;20657;-62
2023/11/30 06:26:10;;;;;;;2.73;2.50;;;;;;;;;;4980046;28;20228;-62
2023/11/30 06:28:38;;;;;;;3.50;2.60;;;;;;;;;;4980399;28;20218;-62
2023/11/30 06:31:06;;;;;;;3.67;2.67;;;;;;;;;;4980201;28;20261;-63
2023/11/30 06:33:34;;;;;;;2.70;2.47;;;;;;;;;;4980311;28;20216;-63
2023/11/30 06:36:03;;;;;;;2.97;2.77;;;;;;;;;;4979803;28;20234;-63
2023/11/30 06:38:32;;;;;;;2.70;2.50;;;;;;;;;;4980160;28;20217;-64
2023/11/30 06:41:00;;;;;;;3.93;2.53;;;;;;;;;;4980519;28;20277;-63
2023/11/30 06:43:32;;;;;;;4.13;2.50;;;;;;;;;;4979762;28;20209;-64
2023/11/30 06:46:00;;;;;;;3.93;2.27;;;;;;;;;;4979419;28;20692;-63
2023/11/30 06:48:28;;;;;;;3.63;2.43;;;;;;;;;;4979270;28;20276;-63
2023/11/30 06:50:56;;;;;;;3.03;2.43;;;;;;;;;;4979492;28;20229;-63
2023/11/30 06:53:24;;;;;;;2.83;2.50;;;;;;;;;;4979856;28;20210;-63
2023/11/30 06:55:52;;;;;;;3.83;2.30;;;;;;;;;;4979525;28;20226;-63
2023/11/30 06:58:20;;;;;;;3.87;2.90;;;;;;;;;;4981111;28;20731;-63
2023/11/30 07:00:51;;;;;;;3.20;2.87;;;;;;;;;;4979211;28;20258;-63
2023/11/30 07:03:23;;;;;;;2.70;2.23;;;;;;;;;;4979917;28;20296;-63
2023/11/30 07:05:51;;;;;;;3.07;2.73;;;;;;;;;;4979444;28;20210;-63
2023/11/30 07:08:22;;;;;;;5.33;2.50;;;;;;;;;;4979652;28;20213;-64
2023/11/30 07:14:11;;;;;;;3.00;2.73;;;;;;;;;;4978795;28;20660;-63
2023/11/30 07:20:06;;;;;;;2.30;2.10;;;;;;;;;;4978627;28;20188;-64
2023/11/30 07:22:35;;;;;;;2.60;2.27;;;;;;;;;;4979228;28;20293;-64
2023/11/30 07:25:03;;;;;;;3.40;2.80;;;;;;;;;;4979285;28;20214;-63
2023/11/30 07:27:34;;;;;;;3.13;2.77;;;;;;;;;;4979276;28;20229;-64
2023/11/30 07:30:03;;;;;;;2.80;2.00;;;;;;;;;;4978963;28;20684;-64
2023/11/30 07:32:31;;;;;;;2.87;2.60;;;;;;;;;;4978987;28;20639;-64
2023/11/30 07:35:00;;;;;;;6.03;2.83;;;;;;;;;;4978957;28;20237;-64
2023/11/30 07:40:52;;;;;;;5.03;2.90;;;;;;;;;;4988997;28;20228;-64
2023/11/30 07:46:41;;;;;;;3.60;2.53;;;;;;;;;;4978398;28;20275;-64
2023/11/30 07:49:09;;;;;;;4.00;2.40;;;;;;;;;;4979115;28;20210;-64
2023/11/30 07:54:46;;;;;;;5.70;3.10;;;;;;;;;;4978918;28;20608;-63
2023/11/30 07:57:16;;;;;;;5.37;3.90;;;;;;;;;;4980034;28;20206;-64
2023/11/30 07:59:44;;;;;;;9.73;4.97;;;;;;;;;;4987939;28;20665;-63
2023/11/30 08:02:12;;;;;;;7.63;4.80;;;;;;;;;;4978840;28;20260;-63
2023/11/30 08:04:43;;;;;;;4.80;3.80;;;;;;;;;;4979040;28;20213;-63
2023/11/30 08:07:11;;;;;;;6.93;4.30;;;;;;;;;;4978788;28;20225;-63
2023/11/30 08:09:39;;;;;;;5.20;4.27;;;;;;;;;;4978694;28;20214;-63
2023/11/30 08:12:07;;;;;;;10.07;7.23;;;;;;;;;;4978361;28;20238;-63
2023/11/30 08:14:37;;;;;;;5.87;4.77;;;;;;;;;;4978662;28;20209;-63
2023/11/30 08:17:05;;;;;;;5.97;4.93;;;;;;;;;;4978743;28;20241;-63
2023/11/30 08:19:33;;;;;;;6.47;4.83;;;;;;;;;;4978789;28;20217;-64
2023/11/30 08:22:01;;;;;;;11.50;5.80;;;;;;;;;;4978409;28;20708;-63
2023/11/30 08:24:29;;;;;;;13.23;5.93;;;;;;;;;;4982425;28;20252;-63
2023/11/30 08:26:59;;;;;;;13.57;5.13;;;;;;;;;;4982226;28;20237;-64
2023/11/30 08:29:27;;;;;;;6.47;4.63;;;;;;;;;;4982346;28;20213;-63
2023/11/30 08:31:56;;;;;;;9.13;5.33;;;;;;;;;;4982236;28;20643;-63
2023/11/30 08:34:24;;;;;;;6.93;5.13;;;;;;;;;;4982249;28;20221;-63
2023/11/30 08:36:52;;;;;;;6.93;5.30;;;;;;;;;;4982208;28;20260;-63
2023/11/30 08:39:23;;;;;;;6.00;5.30;;;;;;;;;;4982252;28;20237;-63
2023/11/30 08:41:53;;;;;;;6.63;5.47;;;;;;;;;;4990504;28;20225;-63
2023/11/30 08:44:22;;;;;;;7.60;5.43;;;;;;;;;;4981848;28;20214;-63
2023/11/30 08:46:50;;;;;;;7.03;5.20;;;;;;;;;;4982557;28;20237;-63
2023/11/30 08:49:20;;;;;;;6.00;5.40;;;;;;;;;;4982243;28;20205;-63
2023/11/30 08:55:11;;;;;;;16.00;6.93;;;;;;;;;;4981920;28;20264;-64
2023/11/30 08:57:39;;;;;;;10.17;5.77;;;;;;;;;;4985189;28;20255;-63
2023/11/30 09:00:12;;;;;;;15.70;7.27;;;;;;;;;;4981547;28;20213;-64
2023/11/30 09:02:40;;;;;;;12.37;7.13;;;;;;;;;;4981864;28;20213;-63
2023/11/30 09:05:11;;;;;;;12.50;6.60;;;;;;;;;;4981957;28;20220;-64
2023/11/30 09:07:39;;;;;;;10.87;6.40;;;;;;;;;;4981786;28;20230;-62
2023/11/30 09:10:07;;;;;;;13.37;7.03;;;;;;;;;;4981657;28;20264;-64
2023/11/30 09:12:36;;;;;;;9.00;5.17;;;;;;;;;;4981956;28;20241;-62
2023/11/30 09:15:08;;;;;;;10.00;5.37;;;;;;;;;;4981566;28;20237;-61
2023/11/30 09:17:37;;;;;;;10.20;5.73;;;;;;;;;;4981349;28;20202;-62
2023/11/30 09:20:07;;;;;;;10.67;5.83;;;;;;;;;;4981584;28;20212;-62
2023/11/30 09:22:37;;;;;;;7.40;4.13;;;;;;;;;;4981654;28;20245;-62
2023/11/30 09:25:06;;;;;;;6.73;4.03;;;;;;;;;;4981303;28;20213;-62
2023/11/30 09:27:33;;;;;;;5.57;3.20;;;;;;;;;;4981151;28;20335;-63
2023/11/30 09:30:23;;;;;;;4.90;2.60;;;;;;;;;;4981036;28;20252;-62
2023/11/30 09:32:52;;;;;;;3.93;2.70;;;;;;;;;;4980477;28;20222;-61
2023/11/30 09:35:20;;;;;;;3.47;2.30;;;;;;;;;;4975691;28;20234;-62
2023/11/30 09:37:50;;;;;;;2.20;1.70;;;;;;;;;;4981253;28;20210;-62
2023/11/30 09:40:18;;;;;;;8.00;2.33;;;;;;;;;;4986784;28;20232;-62
2023/11/30 09:42:49;;;;;;;1.70;1.60;;;;;;;;;;4982771;28;20210;-61
2023/11/30 09:45:19;;;;;;;2.67;1.77;;;;;;;;;;4980913;28;20205;-62
2023/11/30 09:47:47;;;;;;;1.83;1.73;;;;;;;;;;4980940;28;20312;-62
2023/11/30 09:50:16;;;;;;;2.07;1.97;;;;;;;;;;4981017;28;20314;-62
2023/11/30 09:52:44;;;;;;;2.70;1.77;;;;;;;;;;4980770;28;20260;-62
2023/11/30 09:55:14;;;;;;;4.20;2.00;;;;;;;;;;4980566;28;20665;-62
2023/11/30 09:57:45;;;;;;;2.07;1.87;;;;;;;;;;4982572;28;20724;-62
2023/11/30 10:00:14;;;;;;;3.17;2.30;;;;;;;;;;4980441;28;20241;-62
2023/11/30 10:02:50;;;;;;;3.13;2.60;;;;;;;;;;4980782;28;20218;-62
2023/11/30 10:05:18;;;;;;;2.00;1.73;;;;;;;;;;4980561;28;20657;-62
2023/11/30 10:07:46;;;;;;;2.43;1.67;;;;;;;;;;4980428;28;20772;-62
2023/11/30 10:13:38;;;;;;;1.30;1.20;;;;;;;;;;4980145;28;20204;-62
2023/11/30 10:16:07;;;;;;;1.20;1.10;;;;;;;;;;4980417;28;20298;-61
2023/11/30 10:18:35;;;;;;;1.30;1.20;;;;;;;;;;4980536;28;20268;-62
2023/11/30 10:21:03;;;;;;;1.50;1.23;;;;;;;;;;4980113;28;20264;-63
2023/11/30 10:23:32;;;;;;;1.40;1.30;;;;;;;;;;4980436;28;20438;-63
2023/11/30 10:26:02;;;;;;;2.03;1.40;;;;;;;;;;4980033;28;20213;-63
2023/11/30 10:28:33;;;;;;;1.40;1.30;;;;;;;;;;4980279;28;20233;-63
2023/11/30 10:31:04;;;;;;;2.10;1.50;;;;;;;;;;4979811;28;20233;-63
2023/11/30 10:33:54;;;;;;;1.50;1.40;;;;;;;;;;4980435;28;20220;-63
2023/11/30 10:36:26;;;;;;;1.60;1.47;;;;;;;;;;4979770;28;20348;-63
2023/11/30 10:42:04;;;;;;;19.03;10.17;;;;;;;;;;4968823;28;20293;-61
2023/11/30 10:44:32;;;;;;;25.80;15.20;;;;;;;;;;4979558;28;20676;-62
2023/11/30 10:47:02;;;;;;;5.10;3.00;;;;;;;;;;4979755;28;20209;-61
2023/11/30 10:49:30;;;;;;;1.50;1.40;;;;;;;;;;4979926;28;20288;-61
2023/11/30 10:52:08;;;;;;;2.90;1.73;;;;;;;;;;4979875;28;20229;-61
2023/11/30 10:54:38;;;;;;;2.77;1.53;;;;;;;;;;4979472;28;20648;-61
2023/11/30 10:57:22;;;;;;;1.50;1.40;;;;;;;;;;4980045;28;20665;-61
2023/11/30 10:59:56;;;;;;;1.63;1.50;;;;;;;;;;4979331;28;20210;-62
2023/11/30 11:02:26;;;;;;;1.20;1.20;;;;;;;;;;4979650;28;20232;-63
2023/11/30 11:05:29;;;;;;;1.93;1.70;;;;;;;;;;4979444;28;20680;-62
2023/11/30 11:07:58;;;;;;;2.50;1.53;;;;;;;;;;4979259;28;20229;-62
2023/11/30 11:13:48;;;;;;;2.20;2.00;;;;;;;;;;4979091;28;20201;-62
2023/11/30 11:16:16;;;;;;;1.63;1.53;;;;;;;;;;4979569;28;20256;-62
2023/11/30 11:18:46;;;;;;;1.57;1.47;;;;;;;;;;4979199;28;20202;-62
2023/11/30 11:21:34;;;;;;;1.40;1.30;;;;;;;;;;4979377;28;20233;-62
2023/11/30 11:24:05;;;;;;;1.40;1.30;;;;;;;;;;4979364;28;20205;-62
2023/11/30 11:26:43;;;;;;;1.70;1.60;;;;;;;;;;4979259;28;20280;-62
2023/11/30 11:29:13;;;;;;;2.40;1.57;;;;;;;;;;4978867;28;20239;-62
2023/11/30 11:31:45;;;;;;;2.87;1.93;;;;;;;;;;4979178;28;20237;-64
2023/11/30 11:34:16;;;;;;;2.30;1.83;;;;;;;;;;4979025;28;20296;-62
2023/11/30 11:36:59;;;;;;;2.43;1.67;;;;;;;;;;4978888;28;20840;-63
2023/11/30 11:39:27;;;;;;;2.47;1.60;;;;;;;;;;4979150;28;20263;-63
2023/11/30 11:41:58;;;;;;;2.10;1.90;;;;;;;;;;4991275;28;20688;-63
2023/11/30 11:44:26;;;;;;;1.87;1.77;;;;;;;;;;4978916;28;20237;-62
2023/11/30 11:46:54;;;;;;;2.50;1.80;;;;;;;;;;4978789;28;20708;-62
2023/11/30 11:49:24;;;;;;;2.00;1.77;;;;;;;;;;4978671;28;20261;-61
2023/11/30 11:51:54;;;;;;;3.20;1.73;;;;;;;;;;4978671;28;20225;-63
2023/11/30 11:57:45;;;;;;;2.87;1.73;;;;;;;;;;4980967;28;20201;-62
2023/11/30 12:00:16;;;;;;;1.87;1.77;;;;;;;;;;4978407;28;20292;-62
2023/11/30 12:02:45;;;;;;;2.67;1.80;;;;;;;;;;4978568;28;20740;-62
2023/11/30 12:05:16;;;;;;;2.33;2.10;;;;;;;;;;4978976;28;20213;-62
2023/11/30 12:07:47;;;;;;;3.57;2.10;;;;;;;;;;4978590;28;20236;-62
2023/11/30 12:10:25;;;;;;;9.17;3.23;;;;;;;;;;4978331;28;20230;-63
2023/11/30 12:12:54;;;;;;;5.10;2.33;;;;;;;;;;4978646;28;20212;-62
2023/11/30 12:15:25;;;;;;;4.20;2.20;;;;;;;;;;4978353;28;20659;-62
2023/11/30 12:17:53;;;;;;;4.10;2.03;;;;;;;;;;4978571;28;20276;-61
2023/11/30 12:20:23;;;;;;;3.97;2.10;;;;;;;;;;4978715;28;20205;-61
2023/11/30 12:22:51;;;;;;;2.33;2.00;;;;;;;;;;4978578;28;20736;-62
2023/11/30 12:25:19;;;;;;;3.63;2.20;;;;;;;;;;4978418;28;20241;-61
2023/11/30 12:27:47;;;;;;;2.73;1.90;;;;;;;;;;4978438;28;20221;-62
2023/11/30 12:30:16;;;;;;;2.63;2.20;;;;;;;;;;4978020;28;20755;-61
2023/11/30 12:32:44;;;;;;;4.37;2.33;;;;;;;;;;4978456;28;20264;-62
2023/11/30 12:35:12;;;;;;;2.83;1.80;;;;;;;;;;4978379;28;20292;-61
2023/11/30 12:37:42;;;;;;;2.30;2.10;;;;;;;;;;4978440;28;20214;-62
2023/11/30 12:43:32;;;;;;;3.03;2.43;;;;;;;;;;4977682;28;20603;-62
2023/11/30 12:46:00;;;;;;;2.67;2.40;;;;;;;;;;4978408;28;20732;-62
2023/11/30 12:48:28;;;;;;;3.37;2.20;;;;;;;;;;4978425;28;20293;-61
2023/11/30 12:50:56;;;;;;;2.23;2.00;;;;;;;;;;4978477;28;20229;-61
2023/11/30 12:53:25;;;;;;;3.00;1.90;;;;;;;;;;4978604;28;20210;-62
2023/11/30 12:55:53;;;;;;;2.10;1.70;;;;;;;;;;4978275;28;20233;-62
2023/11/30 12:58:22;;;;;;;2.93;1.87;;;;;;;;;;4978057;28;20548;-61
2023/11/30 13:00:50;;;;;;;2.00;1.90;;;;;;;;;;4978039;28;20222;-61
2023/11/30 13:03:18;;;;;;;8.83;2.93;;;;;;;;;;4978376;28;20214;-62
2023/11/30 13:05:47;;;;;;;7.77;3.30;;;;;;;;;;4978390;28;20214;-61
2023/11/30 13:08:15;;;;;;;2.30;2.03;;;;;;;;;;4978451;28;20280;-61
2023/11/30 13:10:50;;;;;;;4.00;2.07;;;;;;;;;;4981183;28;20766;-62
2023/11/30 13:13:18;;;;;;;7.17;2.10;;;;;;;;;;4981611;28;20627;-61
2023/11/30 13:19:16;;;;;;;2.50;2.10;;;;;;;;;;4981633;28;20212;-62
2023/11/30 13:21:51;;;;;;;2.10;1.60;;;;;;;;;;4981288;28;20254;-62
2023/11/30 13:24:20;;;;;;;2.70;1.90;;;;;;;;;;4981657;28;20214;-62
2023/11/30 13:26:49;;;;;;;1.97;1.87;;;;;;;;;;4981200;28;20217;-63
2023/11/30 13:29:20;;;;;;;2.70;1.83;;;;;;;;;;4981289;28;20229;-61
2023/11/30 13:31:48;;;;;;;25.37;6.73;;;;;;;;;;4981419;28;20236;-61
2023/11/30 13:34:16;;;;;;;35.27;9.00;;;;;;;;;;4981248;28;20217;-61
2023/11/30 13:36:45;;;;;;;9.07;3.03;;;;;;;;;;4981006;28;20242;-63
2023/11/30 13:39:14;;;;;;;2.27;1.90;;;;;;;;;;4981050;28;20210;-62
2023/11/30 13:41:42;;;;;;;2.70;2.00;;;;;;;;;;4981420;28;20236;-61
2023/11/30 13:44:13;;;;;;;3.17;1.80;;;;;;;;;;4980811;28;20213;-61
2023/11/30 13:46:40;;;;;;;3.20;2.50;;;;;;;;;;4981159;28;20296;-62
2023/11/30 13:49:45;;;;;;;2.30;2.10;;;;;;;;;;4981104;28;20214;-61
2023/11/30 13:52:13;;;;;;;2.63;1.97;;;;;;;;;;4980671;28;20895;-62
2023/11/30 13:54:42;;;;;;;5.77;2.13;;;;;;;;;;4980869;28;20203;-62
2023/11/30 13:57:10;;;;;;;2.47;2.00;;;;;;;;;;4981670;28;20225;-64
2023/11/30 13:59:40;;;;;;;2.40;2.10;;;;;;;;;;4982087;28;20237;-63
2023/11/30 14:02:08;;;;;;;2.00;1.90;;;;;;;;;;4981192;28;20237;-62
2023/11/30 14:04:40;;;;;;;5.17;2.17;;;;;;;;;;4980842;28;20293;-61
2023/11/30 14:07:10;;;;;;;3.80;1.80;;;;;;;;;;4980568;28;20641;-62
2023/11/30 14:09:41;;;;;;;2.47;2.27;;;;;;;;;;4980533;28;20261;-62
2023/11/30 14:12:18;;;;;;;3.23;1.80;;;;;;;;;;4980386;28;20318;-62
2023/11/30 14:14:48;;;;;;;3.63;2.00;;;;;;;;;;4980587;28;20205;-62
2023/11/30 14:17:25;;;;;;;1.87;1.77;;;;;;;;;;4980632;28;20210;-62
2023/11/30 14:19:57;;;;;;;2.03;1.80;;;;;;;;;;4980336;28;20209;-63
2023/11/30 14:22:25;;;;;;;3.23;2.20;;;;;;;;;;4980071;28;20787;-62
2023/11/30 14:24:53;;;;;;;2.23;2.10;;;;;;;;;;4980574;28;20268;-62
2023/11/30 14:27:39;;;;;;;4.23;2.13;;;;;;;;;;4980135;28;20580;-62
2023/11/30 14:30:35;;;;;;;3.83;1.90;;;;;;;;;;4979839;28;20229;-62
2023/11/30 14:33:10;;;;;;;4.43;2.00;;;;;;;;;;4980260;28;20217;-62
2023/11/30 14:35:41;;;;;;;2.50;2.27;;;;;;;;;;4979575;28;20324;-62
2023/11/30 14:38:10;;;;;;;2.67;2.10;;;;;;;;;;4980275;28;20214;-62
2023/11/30 14:40:38;;;;;;;3.07;2.07;;;;;;;;;;4984381;28;20229;-61
2023/11/30 14:46:35;;;;;;;2.87;2.57;;;;;;;;;;4979305;28;20568;-62
2023/11/30 14:49:05;;;;;;;3.93;2.40;;;;;;;;;;4979756;28;20210;-62
2023/11/30 14:51:33;;;;;;;2.27;2.07;;;;;;;;;;4979613;28;20644;-62
2023/11/30 14:54:05;;;;;;;3.27;2.20;;;;;;;;;;4979687;28;20217;-62
2023/11/30 14:56:33;;;;;;;3.77;2.63;;;;;;;;;;4979486;28;20205;-62
2023/11/30 14:59:38;;;;;;;5.17;2.70;;;;;;;;;;4982512;28;20210;-62
2023/11/30 15:02:06;;;;;;;7.17;3.70;;;;;;;;;;4979621;28;20251;-62
2023/11/30 15:04:38;;;;;;;5.10;3.17;;;;;;;;;;4979736;28;20217;-62
2023/11/30 15:07:06;;;;;;;2.67;2.47;;;;;;;;;;4979779;28;20205;-62
2023/11/30 15:09:34;;;;;;;3.73;2.20;;;;;;;;;;4979537;28;20209;-63
2023/11/30 15:12:02;;;;;;;4.67;2.47;;;;;;;;;;4979462;28;20230;-61
2023/11/30 15:14:30;;;;;;;6.27;3.23;;;;;;;;;;4979206;28;20221;-61
2023/11/30 15:16:58;;;;;;;4.50;3.07;;;;;;;;;;4979294;28;20210;-61
2023/11/30 15:19:26;;;;;;;4.77;3.13;;;;;;;;;;4979572;28;20213;-61
2023/11/30 15:21:56;;;;;;;3.80;2.60;;;;;;;;;;4978887;28;20229;-61
2023/11/30 15:24:24;;;;;;;6.47;3.43;;;;;;;;;;4979249;28;20296;-62
2023/11/30 15:26:52;;;;;;;6.87;3.10;;;;;;;;;;4979321;28;20240;-62
2023/11/30 15:29:23;;;;;;;5.30;3.27;;;;;;;;;;4979181;28;20237;-61
2023/11/30 15:31:51;;;;;;;3.40;3.10;;;;;;;;;;4978549;28;20273;-62
2023/11/30 15:37:49;;;;;;;4.60;3.13;;;;;;;;;;4978935;28;20383;-61
2023/11/30 15:40:19;;;;;;;3.60;3.20;;;;;;;;;;4979330;28;20197;-60
2023/11/30 15:42:47;;;;;;;4.67;3.17;;;;;;;;;;4979274;28;20268;-61
2023/11/30 15:45:17;;;;;;;4.13;2.90;;;;;;;;;;4978901;28;20288;-61
2023/11/30 15:47:45;;;;;;;3.73;3.17;;;;;;;;;;4979105;28;20237;-62
2023/11/30 15:50:17;;;;;;;5.17;3.30;;;;;;;;;;4977513;28;20253;-61
2023/11/30 15:52:45;;;;;;;4.10;3.70;;;;;;;;;;4979028;28;20209;-61
2023/11/30 15:55:14;;;;;;;7.73;4.07;;;;;;;;;;4978934;28;20217;-62